Polaris — JD2797 — position and weather

sailwx.info

Track history (hours):
 
Tides and Currents Weather Stations Pressure Air Temp Water Temp Dewpoint Dewpoint Depression Visibility Wind Speed Wind Dir Waves Ship Positions

Polaris

Last reported at 2015-Mar-27 00:34 UTC. Time now 2015-Mar-27 10:20 UTC.
Position N 35°27' E 139°40'.

Length 30 m; draft 2.6 m.

Type: Pilot. MMSI: 431000764.

Date/timePositionNaut miles runAvg speedWind from/ knotsBaromVisibWave heightAir tempDewpointWater temp
2015-Mar-27 00:34N 35°27' E 139°40'1313.1
2015-Mar-26 23:33N 35°15' E 139°45'6 6.3
2015-Mar-26 22:34N 35°21' E 139°42'8 7.7
2015-Mar-26 21:34N 35°28' E 139°45'5 4.5
2015-Mar-26 20:34N 35°27' E 139°39'1 0.7
2015-Mar-26 19:33N 35°27' E 139°40'0 0.0
2015-Mar-26 18:33N 35°27' E 139°40'0 0.0
2015-Mar-26 17:33N 35°27' E 139°40'0 0.0
2015-Mar-26 16:33N 35°27' E 139°40'0 0.0
2015-Mar-26 15:33N 35°27' E 139°40'0 0.0
2015-Mar-26 14:33N 35°27' E 139°40'0 0.0
2015-Mar-26 13:33N 35°27' E 139°40'0 0.0
2015-Mar-26 12:33N 35°27' E 139°40'0 0.0
2015-Mar-26 08:21N 35°27' E 139°40'9 8.3
2015-Mar-26 07:17N 35°19' E 139°44'811.6
2015-Mar-26 06:33N 35°10' E 139°47'9 8.9
2015-Mar-26 05:31N 35°19' E 139°42'8 2.0
2015-Mar-26 01:32N 35°27' E 139°40'0 0.0
2015-Mar-26 00:32N 35°27' E 139°40'2 2.1
2015-Mar-25 23:33N 35°25' E 139°42'1313.5
2015-Mar-25 22:33N 35°12' E 139°46'1211.7
2015-Mar-25 21:33N 35°24' E 139°43'2 2.3
2015-Mar-25 20:33N 35°26' E 139°43'2 2.2
2015-Mar-25 19:26N 35°27' E 139°40'0 0.0
2015-Mar-24 04:09N 35°27' E 139°40'5 8.5
2015-Mar-24 03:33N 35°30' E 139°44'0 0.5
2015-Mar-24 02:33N 35°30' E 139°44'5 4.9
2015-Mar-24 01:33N 35°27' E 139°40'0 0.0
2015-Mar-24 00:33N 35°27' E 139°40'0 0.0
2015-Mar-23 23:33N 35°27' E 139°40'0 0.0
2015-Mar-23 09:06N 35°27' E 139°40'0 0.0
2015-Mar-23 08:33N 35°27' E 139°40'3 2.6
2015-Mar-23 07:34N 35°29' E 139°42'1 0.7
2015-Mar-23 06:33N 35°29' E 139°42'2 2.4
2015-Mar-23 05:33N 35°27' E 139°41'1 0.9
2015-Mar-23 04:33N 35°27' E 139°40'0 0.0
2015-Mar-23 03:33N 35°27' E 139°40'0 0.0
2015-Mar-21 10:16N 35°27' E 139°40'6 8.5
2015-Mar-21 09:33N 35°24' E 139°46'1211.9
2015-Mar-21 08:33N 35°12' E 139°47'4 4.3
2015-Mar-21 07:33N 35°16' E 139°45'1211.6
2015-Mar-21 06:34N 35°27' E 139°40'  
2015-Mar-18 09:33N 35°25' E 139°42'1212.4
2015-Mar-18 08:34N 35°13' E 139°46'1010.4
2015-Mar-18 07:33N 35°24' E 139°42'3 3.4
2015-Mar-18 06:34N 35°27' E 139°41'1 1.2
2015-Mar-18 05:34N 35°27' E 139°40'0 0.0
2015-Mar-18 04:34N 35°27' E 139°40'0 0.0
2015-Mar-18 03:34N 35°27' E 139°40'0 0.1
2015-Mar-18 01:33N 35°27' E 139°40'7 7.1
2015-Mar-18 00:32N 35°20' E 139°45'1010.0
2015-Mar-17 23:34N 35°11' E 139°47'10 9.8
2015-Mar-17 22:33N 35°20' E 139°42'7 7.0
2015-Mar-17 21:34N 35°27' E 139°40'0 0.0
2015-Mar-17 20:33N 35°27' E 139°40'0 0.0
2015-Mar-17 07:27N 35°27' E 139°40'5 5.4
2015-Mar-17 06:33N 35°30' E 139°44'4 3.9
2015-Mar-17 05:34N 35°28' E 139°40'1 1.1
2015-Mar-17 04:33N 35°27' E 139°40'0 0.0
2015-Mar-17 03:33N 35°27' E 139°40'0 0.0
2015-Mar-17 02:33N 35°27' E 139°40'0 0.0
2015-Mar-17 01:34N 35°27' E 139°40'  
Track history (hours):
 
Tides and Currents Weather Stations Pressure Air Temp Water Temp Dewpoint Dewpoint Depression Visibility Wind Speed Wind Dir Waves Ship Positions

Polaris

Last reported at 2015-Mar-27 00:34 UTC. Time now 2015-Mar-27 10:20 UTC.
Position N 35°27' E 139°40'.

Length 30 m; draft 2.6 m.

Type: Pilot. MMSI: 431000764.

Date/timePositionNaut miles runAvg speedWind from/ knotsBaromVisibWave heightAir tempDewpointWater temp
2015-Mar-27 00:34N 35°27' E 139°40'1313.1
2015-Mar-26 23:33N 35°15' E 139°45'6 6.3
2015-Mar-26 22:34N 35°21' E 139°42'8 7.7
2015-Mar-26 21:34N 35°28' E 139°45'5 4.5
2015-Mar-26 20:34N 35°27' E 139°39'1 0.7
2015-Mar-26 19:33N 35°27' E 139°40'0 0.0
2015-Mar-26 18:33N 35°27' E 139°40'0 0.0
2015-Mar-26 17:33N 35°27' E 139°40'0 0.0
2015-Mar-26 16:33N 35°27' E 139°40'0 0.0
2015-Mar-26 15:33N 35°27' E 139°40'0 0.0
2015-Mar-26 14:33N 35°27' E 139°40'0 0.0
2015-Mar-26 13:33N 35°27' E 139°40'0 0.0
2015-Mar-26 12:33N 35°27' E 139°40'0 0.0
2015-Mar-26 08:21N 35°27' E 139°40'9 8.3
2015-Mar-26 07:17N 35°19' E 139°44'811.6
2015-Mar-26 06:33N 35°10' E 139°47'9 8.9
2015-Mar-26 05:31N 35°19' E 139°42'8 2.0
2015-Mar-26 01:32N 35°27' E 139°40'0 0.0
2015-Mar-26 00:32N 35°27' E 139°40'2 2.1
2015-Mar-25 23:33N 35°25' E 139°42'1313.5
2015-Mar-25 22:33N 35°12' E 139°46'1211.7
2015-Mar-25 21:33N 35°24' E 139°43'2 2.3
2015-Mar-25 20:33N 35°26' E 139°43'2 2.2
2015-Mar-25 19:26N 35°27' E 139°40'0 0.0
2015-Mar-24 04:09N 35°27' E 139°40'5 8.5
2015-Mar-24 03:33N 35°30' E 139°44'0 0.5
2015-Mar-24 02:33N 35°30' E 139°44'5 4.9
2015-Mar-24 01:33N 35°27' E 139°40'0 0.0
2015-Mar-24 00:33N 35°27' E 139°40'0 0.0
2015-Mar-23 23:33N 35°27' E 139°40'0 0.0
2015-Mar-23 09:06N 35°27' E 139°40'0 0.0
2015-Mar-23 08:33N 35°27' E 139°40'3 2.6
2015-Mar-23 07:34N 35°29' E 139°42'1 0.7
2015-Mar-23 06:33N 35°29' E 139°42'2 2.4
2015-Mar-23 05:33N 35°27' E 139°41'1 0.9
2015-Mar-23 04:33N 35°27' E 139°40'0 0.0
2015-Mar-23 03:33N 35°27' E 139°40'0 0.0
2015-Mar-21 10:16N 35°27' E 139°40'6 8.5
2015-Mar-21 09:33N 35°24' E 139°46'1211.9
2015-Mar-21 08:33N 35°12' E 139°47'4 4.3
2015-Mar-21 07:33N 35°16' E 139°45'1211.6
2015-Mar-21 06:34N 35°27' E 139°40'  
2015-Mar-18 09:33N 35°25' E 139°42'1212.4
2015-Mar-18 08:34N 35°13' E 139°46'1010.4
2015-Mar-18 07:33N 35°24' E 139°42'3 3.4
2015-Mar-18 06:34N 35°27' E 139°41'1 1.2
2015-Mar-18 05:34N 35°27' E 139°40'0 0.0
2015-Mar-18 04:34N 35°27' E 139°40'0 0.0
2015-Mar-18 03:34N 35°27' E 139°40'0 0.1
2015-Mar-18 01:33N 35°27' E 139°40'7 7.1
2015-Mar-18 00:32N 35°20' E 139°45'1010.0
2015-Mar-17 23:34N 35°11' E 139°47'10 9.8
2015-Mar-17 22:33N 35°20' E 139°42'7 7.0
2015-Mar-17 21:34N 35°27' E 139°40'0 0.0
2015-Mar-17 20:33N 35°27' E 139°40'0 0.0
2015-Mar-17 07:27N 35°27' E 139°40'5 5.4
2015-Mar-17 06:33N 35°30' E 139°44'4 3.9
2015-Mar-17 05:34N 35°28' E 139°40'1 1.1
2015-Mar-17 04:33N 35°27' E 139°40'0 0.0
2015-Mar-17 03:33N 35°27' E 139°40'0 0.0
2015-Mar-17 02:33N 35°27' E 139°40'0 0.0
2015-Mar-17 01:34N 35°27' E 139°40'  

Dump ship's entire track history